createdAt,value
2019-06-20T00:01:12.776Z,99198.84
2019-06-20T00:03:46.621Z,99204.96
2019-06-20T00:06:19.672Z,99207.64
2019-06-20T00:08:52.859Z,99204.44
2019-06-20T00:11:25.457Z,99210.89
2019-06-20T00:13:58.190Z,99210.78
2019-06-20T00:16:31.101Z,99212.11
2019-06-20T00:19:03.954Z,99212.16
2019-06-20T00:21:37.101Z,99203.70
2019-06-20T00:24:11.339Z,99204.33
2019-06-20T00:26:43.677Z,99206.91
2019-06-20T00:29:16.179Z,99207.49
2019-06-20T00:31:48.895Z,99209.67
2019-06-20T00:34:23.666Z,99210.95
2019-06-20T00:36:56.876Z,99206.80
2019-06-20T00:39:29.468Z,99211.38
2019-06-20T00:42:02.297Z,99215.66
2019-06-20T00:44:34.797Z,99211.69
2019-06-20T00:47:07.417Z,99213.59
2019-06-20T00:49:40.268Z,99205.57
2019-06-20T00:52:13.106Z,99210.72
2019-06-20T00:54:45.612Z,99219.92
2019-06-20T00:57:18.683Z,99225.06
2019-06-20T00:59:51.455Z,99228.34
2019-06-20T01:02:24.066Z,99231.78
2019-06-20T01:04:57.720Z,99234.17
2019-06-20T01:07:30.408Z,99243.02
2019-06-20T01:10:03.900Z,99243.59
2019-06-20T01:12:37.595Z,99254.08
2019-06-20T01:15:13.141Z,99261.19
2019-06-20T01:17:45.863Z,99258.27
2019-06-20T01:20:19.219Z,99259.73
2019-06-20T01:22:52.173Z,99262.33
2019-06-20T01:25:45.572Z,99266.05
2019-06-20T01:28:18.239Z,99261.72
2019-06-20T01:30:50.746Z,99269.87
2019-06-20T01:33:25.652Z,99268.42
2019-06-20T01:35:58.200Z,99269.44
2019-06-20T01:38:30.720Z,99268.61
2019-06-20T01:41:06.220Z,99271.91
2019-06-20T01:43:50.110Z,99270.42
2019-06-20T01:46:23.797Z,99273.98
2019-06-20T01:48:56.580Z,99281.41
2019-06-20T01:51:29.075Z,99278.00
2019-06-20T01:54:01.479Z,99280.20
2019-06-20T01:56:34.077Z,99286.73
2019-06-20T01:59:06.478Z,99290.43
2019-06-20T02:01:44.328Z,99294.94
2019-06-20T02:04:21.781Z,99295.34
2019-06-20T02:06:59.271Z,99293.30
2019-06-20T02:09:38.451Z,99293.20
2019-06-20T02:12:15.945Z,99293.84
2019-06-20T02:14:53.543Z,99294.53
2019-06-20T02:17:31.260Z,99289.55
2019-06-20T02:20:04.715Z,99288.50
2019-06-20T02:22:37.168Z,99291.30
2019-06-20T02:25:10.775Z,99292.19
2019-06-20T02:27:43.203Z,99291.39
2019-06-20T02:30:17.687Z,99293.88
2019-06-20T02:32:50.413Z,99288.68
2019-06-20T02:35:23.048Z,99297.39
2019-06-20T02:37:55.659Z,99296.72
2019-06-20T02:40:28.693Z,99297.98
2019-06-20T02:43:01.331Z,99298.19
2019-06-20T02:45:39.503Z,99302.44
2019-06-20T02:48:12.105Z,99306.90
2019-06-20T02:50:44.629Z,99303.77
2019-06-20T02:53:22.737Z,99308.17
2019-06-20T02:56:00.954Z,99304.97
2019-06-20T02:58:34.095Z,99305.94
2019-06-20T03:01:06.944Z,99307.07
2019-06-20T03:03:39.526Z,99309.88
2019-06-20T03:06:11.886Z,99307.66
2019-06-20T03:08:45.911Z,99309.11
2019-06-20T03:11:18.671Z,99307.99
2019-06-20T03:13:53.047Z,99307.25
2019-06-20T03:16:25.947Z,99312.12
2019-06-20T03:18:58.535Z,99310.80
2019-06-20T03:24:51.531Z,99310.59
2019-06-20T03:27:24.118Z,99309.03
2019-06-20T03:29:56.786Z,99312.11
2019-06-20T03:32:29.625Z,99311.06
2019-06-20T03:35:02.854Z,99316.70
2019-06-20T03:37:36.294Z,99318.23
2019-06-20T03:40:10.266Z,99319.86
2019-06-20T03:42:43.216Z,99326.33
2019-06-20T03:45:17.826Z,99333.76
2019-06-20T03:47:51.726Z,99336.95
2019-06-20T03:50:24.767Z,99331.94
2019-06-20T03:53:01.433Z,99335.32
2019-06-20T03:55:34.619Z,99338.00
2019-06-20T03:58:06.940Z,99344.38
2019-06-20T04:00:39.710Z,99340.19
2019-06-20T04:03:12.647Z,99347.61
2019-06-20T04:05:45.249Z,99354.14
2019-06-20T04:08:17.648Z,99356.54
2019-06-20T04:10:51.416Z,99361.45
2019-06-20T04:13:24.103Z,99358.64
2019-06-20T04:15:56.809Z,99358.43
2019-06-20T04:18:29.704Z,99362.66
2019-06-20T04:21:02.320Z,99363.10
2019-06-20T04:23:34.874Z,99366.89
2019-06-20T04:26:09.770Z,99366.63
2019-06-20T04:28:42.227Z,99371.15
2019-06-20T04:31:14.652Z,99372.97
2019-06-20T04:33:47.550Z,99377.91
2019-06-20T04:36:20.600Z,99379.23
2019-06-20T04:38:53.092Z,99381.73
2019-06-20T04:41:25.866Z,99378.30
2019-06-20T04:43:58.981Z,99382.19
2019-06-20T04:46:43.729Z,99382.47
2019-06-20T04:49:19.620Z,99388.91
2019-06-20T04:51:53.689Z,99389.08
2019-06-20T04:54:26.520Z,99390.34
2019-06-20T04:56:59.054Z,99392.16
2019-06-20T04:59:31.452Z,99398.34
2019-06-20T05:02:05.381Z,99399.01
2019-06-20T05:04:37.975Z,99404.64
2019-06-20T05:07:19.517Z,99405.27
2019-06-20T05:09:52.132Z,99407.20
2019-06-20T05:12:24.710Z,99408.44
2019-06-20T05:14:57.339Z,99417.06
2019-06-20T05:17:29.881Z,99418.30
2019-06-20T05:20:02.349Z,99414.14
2019-06-20T05:22:35.281Z,99420.98
2019-06-20T05:25:08.463Z,99420.53
2019-06-20T05:27:41.068Z,99424.59
2019-06-20T05:30:16.206Z,99426.44
2019-06-20T05:32:49.413Z,99428.26
2019-06-20T05:35:21.977Z,99429.89
2019-06-20T05:37:54.732Z,99430.02
2019-06-20T05:40:27.485Z,99430.09
2019-06-20T05:43:00.153Z,99432.54
2019-06-20T05:45:32.845Z,99433.38
2019-06-20T05:48:05.968Z,99430.19
2019-06-20T05:50:39.611Z,99430.77
2019-06-20T05:53:14.752Z,99429.89
2019-06-20T05:55:48.049Z,99428.13
2019-06-20T05:58:20.723Z,99430.53
2019-06-20T06:00:54.090Z,99432.43
2019-06-20T06:03:27.644Z,99431.93
2019-06-20T06:06:00.224Z,99436.23
2019-06-20T06:08:34.049Z,99439.08
2019-06-20T06:11:08.308Z,99440.65
2019-06-20T06:13:40.771Z,99438.77
2019-06-20T06:16:25.724Z,99440.73
2019-06-20T06:19:00.937Z,99436.33
2019-06-20T06:21:33.470Z,99442.06
2019-06-20T06:24:06.519Z,99446.52
2019-06-20T06:26:39.055Z,99447.86
2019-06-20T06:29:11.697Z,99447.03
2019-06-20T06:31:45.499Z,99450.35
2019-06-20T06:34:21.167Z,99449.80
2019-06-20T06:36:54.964Z,99456.05
2019-06-20T06:39:27.759Z,99455.23
2019-06-20T06:42:01.390Z,99455.53
2019-06-20T06:44:34.861Z,99450.00
2019-06-20T06:47:07.643Z,99450.78
2019-06-20T06:49:40.536Z,99452.08
2019-06-20T06:52:13.007Z,99457.84
2019-06-20T06:54:47.096Z,99454.96
2019-06-20T06:57:19.613Z,99454.72
2019-06-20T06:59:52.207Z,99447.78
2019-06-20T07:02:25.068Z,99445.97
2019-06-20T07:04:57.676Z,99452.83
2019-06-20T07:07:30.322Z,99460.52
2019-06-20T07:10:06.408Z,99452.36
2019-06-20T07:12:39.326Z,99452.86
2019-06-20T07:15:14.877Z,99456.03
2019-06-20T07:17:47.912Z,99457.45
2019-06-20T07:20:20.884Z,99457.38
2019-06-20T07:22:53.964Z,99457.36
2019-06-20T07:25:26.896Z,99461.00
2019-06-20T07:28:00.095Z,99460.03
2019-06-20T07:30:32.742Z,99461.78
2019-06-20T07:33:06.007Z,99470.53
2019-06-20T07:35:41.878Z,99469.44
2019-06-20T07:38:16.041Z,99468.06
2019-06-20T07:40:49.035Z,99464.95
2019-06-20T07:43:21.844Z,99468.02
2019-06-20T07:46:02.673Z,99463.62
2019-06-20T07:48:36.359Z,99463.77
2019-06-20T07:51:09.041Z,99464.84
2019-06-20T07:53:42.065Z,99467.57
2019-06-20T07:56:14.764Z,99468.22
2019-06-20T07:58:47.248Z,99470.86
2019-06-20T08:01:20.335Z,99471.98
2019-06-20T08:03:53.546Z,99471.27
2019-06-20T08:06:27.136Z,99473.88
2019-06-20T08:09:00.311Z,99479.05
2019-06-20T08:11:32.873Z,99482.95
2019-06-20T08:14:05.704Z,99480.49
2019-06-20T08:16:39.980Z,99479.66
2019-06-20T08:19:12.585Z,99484.30
2019-06-20T08:21:45.147Z,99478.00
2019-06-20T08:24:18.730Z,99480.39
2019-06-20T08:26:52.300Z,99482.92
2019-06-20T08:29:25.849Z,99493.41
2019-06-20T08:32:00.740Z,99484.47
2019-06-20T08:34:34.652Z,99487.07
2019-06-20T08:37:07.998Z,99483.17
2019-06-20T08:39:42.893Z,99490.70
2019-06-20T08:42:15.904Z,99494.52
2019-06-20T08:44:49.474Z,99491.77
2019-06-20T08:47:27.264Z,99496.48
2019-06-20T08:50:01.400Z,99486.94
2019-06-20T08:52:34.339Z,99494.72
2019-06-20T08:55:08.038Z,99493.42
2019-06-20T08:57:40.609Z,99494.59
2019-06-20T09:00:15.716Z,99491.83
2019-06-20T09:02:48.655Z,99492.75
2019-06-20T09:05:22.062Z,99501.44
2019-06-20T09:07:55.364Z,99499.61
2019-06-20T09:10:39.015Z,99504.45
2019-06-20T09:13:12.888Z,99496.63
2019-06-20T09:15:45.520Z,99495.57
2019-06-20T09:18:18.522Z,99495.51
2019-06-20T09:20:52.678Z,99492.35
2019-06-20T09:23:25.730Z,99500.77
2019-06-20T09:25:59.564Z,99493.98
2019-06-20T09:28:35.261Z,99509.03
2019-06-20T09:31:07.942Z,99508.73
2019-06-20T09:33:40.801Z,99517.35
2019-06-20T09:36:13.899Z,99516.55
2019-06-20T09:38:46.554Z,99518.56
2019-06-20T09:41:20.722Z,99515.23
2019-06-20T09:43:54.290Z,99517.02
2019-06-20T09:46:27.006Z,99520.82
2019-06-20T09:49:02.684Z,99512.66
2019-06-20T09:51:42.089Z,99509.06
2019-06-20T09:54:21.508Z,99525.27
2019-06-20T09:57:04.697Z,99522.17
2019-06-20T10:00:37.609Z,99528.56
2019-06-20T10:03:38.402Z,99517.19
2019-06-20T10:06:14.328Z,99524.98
2019-06-20T10:08:49.984Z,99522.79
2019-06-20T10:11:22.767Z,99523.68
2019-06-20T10:13:58.524Z,99529.98
2019-06-20T10:16:45.033Z,99526.93
2019-06-20T10:19:19.311Z,99531.35
2019-06-20T10:21:52.211Z,99531.58
2019-06-20T10:24:24.813Z,99527.77
2019-06-20T10:26:58.007Z,99535.22
2019-06-20T10:29:31.695Z,99532.05
2019-06-20T10:32:04.697Z,99533.67
2019-06-20T10:34:37.629Z,99524.86
2019-06-20T10:37:10.668Z,99516.20
2019-06-20T10:39:44.511Z,99522.45
2019-06-20T10:42:19.160Z,99521.64
2019-06-20T10:44:52.239Z,99534.00
2019-06-20T10:47:33.654Z,99527.02
2019-06-20T10:50:10.355Z,99529.66
2019-06-20T10:52:43.663Z,99528.48
2019-06-20T10:55:16.640Z,99531.95
2019-06-20T10:57:50.073Z,99534.63
2019-06-20T11:00:32.029Z,99535.00
2019-06-20T11:03:04.806Z,99531.06
2019-06-20T11:05:39.065Z,99538.66
2019-06-20T11:08:13.128Z,99537.13
2019-06-20T11:10:47.194Z,99536.10
2019-06-20T11:13:20.416Z,99542.55
2019-06-20T11:16:11.166Z,99532.98
2019-06-20T11:18:44.128Z,99536.90
2019-06-20T11:21:16.785Z,99529.91
2019-06-20T11:23:50.622Z,99532.48
2019-06-20T11:26:23.509Z,99529.88
2019-06-20T11:28:56.149Z,99526.63
2019-06-20T11:31:31.126Z,99529.77
2019-06-20T11:34:06.359Z,99525.08
2019-06-20T11:36:42.432Z,99521.70
2019-06-20T11:39:15.073Z,99517.89
2019-06-20T11:41:48.632Z,99523.93
2019-06-20T11:44:26.434Z,99519.36
2019-06-20T11:47:00.832Z,99523.86
2019-06-20T11:52:49.883Z,99523.90
2019-06-20T11:55:26.894Z,99521.33
2019-06-20T11:58:05.591Z,99522.01
2019-06-20T12:01:02.711Z,99518.08
2019-06-20T12:03:44.598Z,99517.83
2019-06-20T12:06:22.272Z,99517.00
2019-06-20T12:08:56.541Z,99517.77
2019-06-20T12:11:31.017Z,99516.95
2019-06-20T12:14:07.171Z,99518.07
2019-06-20T12:16:42.760Z,99522.75
2019-06-20T12:19:17.886Z,99520.56
2019-06-20T12:21:54.332Z,99517.88
2019-06-20T12:24:29.246Z,99510.63
2019-06-20T12:27:02.126Z,99504.06
2019-06-20T12:29:34.633Z,99515.11
2019-06-20T12:32:10.222Z,99510.89
2019-06-20T12:34:44.564Z,99505.69
2019-06-20T12:37:23.259Z,99512.22
2019-06-20T12:40:03.738Z,99508.97
2019-06-20T12:42:41.830Z,99513.03
2019-06-20T12:45:24.300Z,99512.20
2019-06-20T12:48:01.049Z,99510.10
2019-06-20T12:50:36.544Z,99509.44
2019-06-20T12:53:14.095Z,99510.97
2019-06-20T12:55:50.790Z,99514.86
2019-06-20T12:58:29.011Z,99512.65
2019-06-20T13:03:55.544Z,99522.62
2019-06-20T13:06:32.399Z,99521.77
2019-06-20T13:09:09.839Z,99524.39
2019-06-20T13:11:42.838Z,99525.66
2019-06-20T13:14:16.027Z,99529.67
2019-06-20T13:16:52.780Z,99532.04
2019-06-20T13:19:25.886Z,99526.36
2019-06-20T13:21:58.485Z,99527.53
2019-06-20T13:24:35.721Z,99531.22
2019-06-20T13:27:20.362Z,99529.69
2019-06-20T13:30:06.143Z,99532.00
2019-06-20T13:32:54.697Z,99530.77
2019-06-20T13:35:34.755Z,99529.69
2019-06-20T13:38:14.356Z,99538.58
2019-06-20T13:40:47.368Z,99537.63
2019-06-20T13:43:20.194Z,99541.10
2019-06-20T13:46:10.592Z,99544.99
2019-06-20T13:48:45.780Z,99542.94
2019-06-20T13:51:18.815Z,99546.97
2019-06-20T13:53:54.968Z,99543.56
2019-06-20T13:56:28.227Z,99540.52
2019-06-20T13:59:00.713Z,99538.52
2019-06-20T14:01:34.413Z,99547.27
2019-06-20T14:04:10.499Z,99550.13
2019-06-20T14:06:45.448Z,99549.78
2019-06-20T14:09:18.492Z,99560.91
2019-06-20T14:11:54.960Z,99564.67
2019-06-20T14:14:28.556Z,99560.11
2019-06-20T14:17:02.378Z,99564.66
2019-06-20T14:19:35.459Z,99567.66
2019-06-20T14:22:10.221Z,99573.84
2019-06-20T14:24:45.047Z,99576.66
2019-06-20T14:27:18.072Z,99576.88
2019-06-20T14:29:52.004Z,99583.33
2019-06-20T14:32:30.602Z,99581.36
2019-06-20T14:35:03.814Z,99584.91
2019-06-20T14:37:37.000Z,99588.28
2019-06-20T14:40:12.446Z,99584.78
2019-06-20T14:42:45.995Z,99581.80
2019-06-20T14:45:20.354Z,99580.25
2019-06-20T14:47:52.949Z,99581.17
2019-06-20T14:50:26.173Z,99579.63
2019-06-20T14:52:59.129Z,99586.43
2019-06-20T14:55:32.648Z,99583.14
2019-06-20T14:58:08.318Z,99584.32
2019-06-20T15:01:09.389Z,99587.58
2019-06-20T15:03:42.176Z,99594.06
2019-06-20T15:06:15.284Z,99593.72
2019-06-20T15:08:49.537Z,99597.14
2019-06-20T15:11:23.753Z,99591.60
2019-06-20T15:13:56.416Z,99591.51
2019-06-20T15:16:29.003Z,99592.86
2019-06-20T15:19:02.233Z,99592.17
2019-06-20T15:21:35.221Z,99595.04
2019-06-20T15:24:07.706Z,99592.05
2019-06-20T15:26:41.999Z,99585.83
2019-06-20T15:29:16.396Z,99580.52
2019-06-20T15:31:54.901Z,99581.27
2019-06-20T15:34:43.981Z,99574.13
2019-06-20T15:37:16.711Z,99575.12
2019-06-20T15:39:51.387Z,99580.95
2019-06-20T15:42:26.478Z,99583.38
2019-06-20T15:45:01.605Z,99584.81
2019-06-20T15:47:35.784Z,99586.94
2019-06-20T15:50:10.522Z,99577.42
2019-06-20T15:52:43.820Z,99576.23
2019-06-20T15:55:20.899Z,99575.54
2019-06-20T15:57:54.322Z,99572.06
2019-06-20T16:00:28.707Z,99581.89
2019-06-20T16:03:09.831Z,99583.18
2019-06-20T16:05:49.009Z,99584.98
2019-06-20T16:08:21.668Z,99581.45
2019-06-20T16:10:54.624Z,99587.17
2019-06-20T16:13:27.399Z,99585.84
2019-06-20T16:16:01.215Z,99591.94
2019-06-20T16:18:33.808Z,99596.81
2019-06-20T16:21:09.633Z,99598.63
2019-06-20T16:23:43.180Z,99602.00
2019-06-20T16:26:15.988Z,99601.03
2019-06-20T16:28:48.981Z,99602.16
2019-06-20T16:31:26.703Z,99598.47
2019-06-20T16:33:59.981Z,99601.56
2019-06-20T16:36:32.757Z,99596.26
2019-06-20T16:39:09.285Z,99596.98
2019-06-20T16:41:41.942Z,99596.06
2019-06-20T16:44:15.170Z,99594.42
2019-06-20T16:46:48.064Z,99591.06
2019-06-20T16:49:20.790Z,99587.31
2019-06-20T16:51:53.883Z,99589.69
2019-06-20T16:54:27.075Z,99591.50
2019-06-20T16:56:59.687Z,99593.92
2019-06-20T16:59:33.297Z,99601.18
2019-06-20T17:02:06.460Z,99611.89
2019-06-20T17:04:39.902Z,99616.27
2019-06-20T17:07:12.472Z,99614.88
2019-06-20T17:09:46.541Z,99620.17
2019-06-20T17:12:19.374Z,99623.41
2019-06-20T17:14:54.603Z,99629.02
2019-06-20T17:17:28.011Z,99628.05
2019-06-20T17:20:00.738Z,99628.30
2019-06-20T17:22:34.371Z,99630.92
2019-06-20T17:25:07.558Z,99628.48
2019-06-20T17:27:40.350Z,99635.14
2019-06-20T17:30:17.727Z,99634.43
2019-06-20T17:32:50.972Z,99633.81
2019-06-20T17:35:23.841Z,99631.80
2019-06-20T17:37:56.922Z,99635.41
2019-06-20T17:40:31.237Z,99651.97
2019-06-20T17:43:05.414Z,99659.61
2019-06-20T17:45:38.729Z,99664.46
2019-06-20T17:48:12.795Z,99668.72
2019-06-20T17:50:49.288Z,99677.27
2019-06-20T17:53:22.577Z,99681.16
2019-06-20T17:55:56.500Z,99682.75
2019-06-20T17:58:29.561Z,99677.33
2019-06-20T18:01:02.365Z,99676.45
2019-06-20T18:03:36.014Z,99678.85
2019-06-20T18:06:09.787Z,99685.05
2019-06-20T18:08:42.637Z,99696.20
2019-06-20T18:11:16.491Z,99694.09
2019-06-20T18:13:50.038Z,99688.56
2019-06-20T18:16:25.397Z,99690.04
2019-06-20T18:19:01.633Z,99687.73
2019-06-20T18:21:34.307Z,99689.55
2019-06-20T18:24:07.288Z,99687.50
2019-06-20T18:26:40.423Z,99693.43
2019-06-20T18:29:14.350Z,99697.30
2019-06-20T18:31:47.802Z,99690.75
2019-06-20T18:34:29.929Z,99705.08
2019-06-20T18:37:03.278Z,99703.13
2019-06-20T18:39:36.342Z,99695.32
2019-06-20T18:42:09.051Z,99690.70
2019-06-20T18:44:41.856Z,99699.02
2019-06-20T18:47:14.533Z,99706.13
2019-06-20T18:49:47.969Z,99703.94
2019-06-20T18:52:20.622Z,99707.20
2019-06-20T18:54:54.257Z,99715.90
2019-06-20T18:57:26.827Z,99729.20
2019-06-20T18:59:59.731Z,99735.36
2019-06-20T19:02:32.472Z,99733.57
2019-06-20T19:05:07.166Z,99731.02
2019-06-20T19:07:39.914Z,99733.11
2019-06-20T19:10:19.563Z,99738.97
2019-06-20T19:12:52.642Z,99741.55
2019-06-20T19:15:25.748Z,99748.31
2019-06-20T19:17:59.351Z,99754.31
2019-06-20T19:20:32.442Z,99754.84
2019-06-20T19:23:05.196Z,99753.88
2019-06-20T19:25:37.797Z,99751.28
2019-06-20T19:28:11.089Z,99751.09
2019-06-20T19:30:49.774Z,99755.04
2019-06-20T19:33:22.769Z,99768.78
2019-06-20T19:35:55.495Z,99769.26
2019-06-20T19:38:28.176Z,99770.57
2019-06-20T19:41:00.872Z,99773.52
2019-06-20T19:43:33.479Z,99783.59
2019-06-20T19:46:06.507Z,99789.77
2019-06-20T19:48:39.288Z,99796.20
2019-06-20T19:51:12.013Z,99796.95
2019-06-20T19:53:45.983Z,99802.75
2019-06-20T19:56:18.875Z,99802.03
2019-06-20T19:58:53.732Z,99801.94
2019-06-20T20:01:26.781Z,99801.42
2019-06-20T20:03:59.399Z,99802.45
2019-06-20T20:06:32.243Z,99806.48
2019-06-20T20:09:06.528Z,99815.24
2019-06-20T20:11:39.589Z,99815.87
2019-06-20T20:14:12.178Z,99817.16
2019-06-20T20:16:46.930Z,99822.52
2019-06-20T20:19:19.523Z,99824.96
2019-06-20T20:21:53.459Z,99824.63
2019-06-20T20:24:26.404Z,99826.47
2019-06-20T20:26:59.122Z,99825.73
2019-06-20T20:29:31.641Z,99826.91
2019-06-20T20:32:04.522Z,99828.47
2019-06-20T20:34:37.407Z,99826.54
2019-06-20T20:37:10.172Z,99829.33
2019-06-20T20:39:42.719Z,99833.36
2019-06-20T20:42:17.736Z,99837.01
2019-06-20T20:44:51.204Z,99831.22
2019-06-20T20:47:24.333Z,99828.27
2019-06-20T20:49:57.475Z,99835.33
2019-06-20T20:52:30.460Z,99833.69
2019-06-20T20:55:03.301Z,99836.09
2019-06-20T20:57:36.518Z,99836.78
2019-06-20T21:00:09.460Z,99838.83
2019-06-20T21:02:44.765Z,99834.77
2019-06-20T21:05:17.392Z,99832.10
2019-06-20T21:07:50.376Z,99836.78
2019-06-20T21:10:24.088Z,99842.30
2019-06-20T21:12:57.030Z,99842.22
2019-06-20T21:15:29.869Z,99844.69
2019-06-20T21:18:02.690Z,99847.67
2019-06-20T21:20:35.801Z,99852.70
2019-06-20T21:23:08.593Z,99851.49
2019-06-20T21:25:41.255Z,99855.45
2019-06-20T21:28:13.845Z,99857.90
2019-06-20T21:30:46.565Z,99860.91
2019-06-20T21:33:19.260Z,99861.08
2019-06-20T21:36:07.521Z,99863.71
2019-06-20T21:38:41.719Z,99867.81
2019-06-20T21:41:14.319Z,99868.16
2019-06-20T21:43:47.072Z,99869.05
2019-06-20T21:46:19.655Z,99872.95
2019-06-20T21:48:53.577Z,99880.56
2019-06-20T21:51:26.232Z,99885.71
2019-06-20T21:53:59.188Z,99888.22
2019-06-20T21:56:31.906Z,99891.72
2019-06-20T21:59:04.678Z,99896.12
2019-06-20T22:01:37.904Z,99893.39
2019-06-20T22:04:11.147Z,99891.27
2019-06-20T22:06:43.785Z,99898.31
2019-06-20T22:09:16.332Z,99897.75
2019-06-20T22:11:49.453Z,99900.00
2019-06-20T22:14:22.392Z,99903.38
2019-06-20T22:16:54.944Z,99909.87
2019-06-20T22:19:27.580Z,99912.57
2019-06-20T22:22:00.245Z,99915.20
2019-06-20T22:24:32.984Z,99911.30
2019-06-20T22:27:05.625Z,99909.09
2019-06-20T22:29:38.333Z,99909.51
2019-06-20T22:32:10.824Z,99914.02
2019-06-20T22:34:43.409Z,99914.30
2019-06-20T22:37:16.218Z,99913.30
2019-06-20T22:39:49.304Z,99913.26
2019-06-20T22:42:21.820Z,99912.86
2019-06-20T22:44:54.398Z,99912.80
2019-06-20T22:47:26.825Z,99912.01
2019-06-20T22:50:01.043Z,99915.78
2019-06-20T22:52:34.451Z,99919.92
2019-06-20T22:55:07.694Z,99925.84
2019-06-20T22:57:40.346Z,99923.65
2019-06-20T23:00:15.900Z,99919.38
2019-06-20T23:02:48.470Z,99920.98
2019-06-20T23:05:21.538Z,99917.42
2019-06-20T23:07:54.271Z,99914.66
2019-06-20T23:10:26.803Z,99912.52
2019-06-20T23:12:59.411Z,99925.58
2019-06-20T23:15:32.112Z,99928.78
2019-06-20T23:18:04.998Z,99927.38
2019-06-20T23:20:37.648Z,99933.89
2019-06-20T23:23:11.581Z,99941.78
2019-06-20T23:25:49.122Z,99943.53
2019-06-20T23:28:22.478Z,99947.00
2019-06-20T23:30:55.962Z,99947.83
2019-06-20T23:33:28.418Z,99948.64
2019-06-20T23:36:01.125Z,99948.50
2019-06-20T23:38:33.599Z,99945.15
2019-06-20T23:41:06.236Z,99943.47
2019-06-20T23:43:38.799Z,99942.75
2019-06-20T23:46:11.532Z,99941.69
2019-06-20T23:48:43.979Z,99933.52
2019-06-20T23:51:25.407Z,99933.57
2019-06-20T23:53:58.429Z,99941.52
2019-06-20T23:56:30.943Z,99938.84
2019-06-20T23:59:03.547Z,99943.97
